Stations météo

Publicité
Grenoble le Versoud, France (7487): Température de l'air & dewpoint: 13.03.2019 15:00:00 - 19.03.2019 15:00:00 (CET)Grenoble le Versoud, France (7487): Vitesse du vent & gusts: 13.03.2019 15:00:00 - 19.03.2019 15:00:00 (CET)Grenoble le Versoud, France (7487): Direction du vent: 13.03.2019 15:00:00 - 19.03.2019 15:00:00 (CET)Grenoble le Versoud, France (7487): reduced air pressure: 13.03.2019 15:00:00 - 19.03.2019 15:00:00 (CET)Grenoble le Versoud, France (7487): Quantités de précipitations: 13.03.2019 15:00:00 - 19.03.2019 15:00:00 (CET)
Date & Time tt [°C] td [°C] ff [km/h] ff [knt] fx [km/h] fx [knt] dd ppp [hPa] rr [mm]
19.03.2019 15:00:00 12,6 -0,7 24 13 37 20 NE 1023,3 0,0
19.03.2019 14:00:00 12,8 1,1 21 11 34 18 NNE 1023,3 0,0
19.03.2019 13:00:00 11,8 -0,7 18 10 34 18 NE 1023,7 -
19.03.2019 12:00:00 10,6 1,1 18 10 28 15 NNE 1024,1 0,0
19.03.2019 11:00:00 9,0 0,7 16 9 26 14 NE 1024,7 0,0
19.03.2019 10:00:00 7,5 0,5 5 3 11 6 ENE 1025,0 0,0
19.03.2019 09:00:00 4,9 1,4 0 0 5 3 N 1025,4 0,0
19.03.2019 08:00:00 -0,1 -1,1 0 0 5 3 N 1025,3 0,0
19.03.2019 07:00:00 -0,5 -1,9 2 1 5 3 WNW 1024,9 -
19.03.2019 06:00:00 0,1 -1,2 0 0 5 3 N 1024,3 0,0
19.03.2019 05:00:00 0,7 -0,9 2 1 5 3 SSW 1023,9 0,0
19.03.2019 04:00:00 1,3 -0,3 4 2 5 3 SSE 1023,6 0,0
19.03.2019 03:00:00 2,0 -0,3 0 0 4 2 N 1023,3 0,0
19.03.2019 02:00:00 3,0 -0,3 0 0 8 4 N 1023,4 0,0
19.03.2019 01:00:00 3,7 0,2 4 2 8 4 SSW 1023,4 -
19.03.2019 00:00:00 3,6 0,1 4 2 5 3 SSW 1023,4 0,0
18.03.2019 23:00:00 3,8 -0,2 2 1 9 5 SSW 1023,6 0,0
18.03.2019 22:00:00 4,0 -0,4 5 3 8 4 WSW 1023,8 0,0
18.03.2019 21:00:00 4,7 0,1 2 1 5 3 S 1023,7 0,0
18.03.2019 20:00:00 6,2 -1,2 0 0 18 10 N 1023,0 0,0
18.03.2019 19:00:00 7,6 -0,9 8 4 15 8 NE 1022,4 -
18.03.2019 18:00:00 9,1 -1,1 15 8 29 16 N 1021,9 0,0
18.03.2019 17:00:00 9,9 -1,2 18 10 34 18 NNE 1021,3 0,0
18.03.2019 16:00:00 10,7 -0,2 22 12 35 19 NE 1021,2 0,0
18.03.2019 15:00:00 10,5 -0,6 21 11 35 19 NNE 1021,3 0,0
18.03.2019 14:00:00 10,8 -1,0 22 12 41 22 NE 1021,4 0,0
18.03.2019 13:00:00 10,1 -0,1 21 11 34 18 NE 1022,1 -
18.03.2019 12:00:00 10,3 -1,1 22 12 34 18 NE 1022,3 0,0
18.03.2019 11:00:00 9,0 1,9 16 9 31 17 NE 1022,5 0,0
18.03.2019 10:00:00 6,9 3,1 5 3 18 10 NNE 1022,7 0,0
18.03.2019 09:00:00 5,5 3,0 2 1 9 5 W 1022,3 0,0
18.03.2019 08:00:00 4,7 3,2 5 3 13 7 WNW 1021,9 0,0
18.03.2019 07:00:00 4,6 2,9 11 6 16 9 NNE 1021,4 -
18.03.2019 06:00:00 4,5 3,0 0 0 11 6 N 1020,9 0,0
18.03.2019 05:00:00 4,5 3,2 5 3 11 6 ENE 1020,2 0,0
18.03.2019 04:00:00 4,5 3,3 4 2 9 5 SE 1020,3 0,0
18.03.2019 03:00:00 4,7 3,2 2 1 8 4 ESE 1020,5 0,0
18.03.2019 02:00:00 4,9 2,9 0 0 22 12 N 1020,8 0,6
18.03.2019 01:00:00 5,8 4,0 0 0 13 7 N 1020,6 -
18.03.2019 00:00:00 5,2 2,9 5 3 11 6 N 1019,6 0,0
17.03.2019 23:00:00 6,4 3,7 2 1 24 13 E 1020,0 0,0
17.03.2019 22:00:00 6,5 4,7 13 7 22 12 NE 1019,4 0,0
17.03.2019 21:00:00 6,4 4,2 9 5 16 9 N 1019,5 0,0
17.03.2019 20:00:00 6,5 4,3 11 6 28 15 NE 1019,6 0,4
17.03.2019 19:00:00 7,7 4,5 11 6 39 21 E 1019,0 -
17.03.2019 18:00:00 9,2 3,2 24 13 59 32 N 1016,5 0,4
17.03.2019 17:00:00 15,2 5,1 21 11 39 21 SSW 1011,7 0,0
17.03.2019 16:00:00 17,8 2,9 13 7 28 15 WSW 1010,5 0,0
17.03.2019 15:00:00 19,5 3,6 13 7 35 19 WSW 1009,7 0,0
17.03.2019 14:00:00 21,1 4,2 24 13 41 22 SW 1009,3 0,0
17.03.2019 13:00:00 18,4 6,2 16 9 34 18 SW 1010,1 -
17.03.2019 12:00:00 17,8 5,7 16 9 35 19 WSW 1010,4 0,0
17.03.2019 11:00:00 15,0 5,2 15 8 26 14 SSW 1011,2 0,0
17.03.2019 10:00:00 10,7 5,0 5 3 11 6 S 1012,1 0,0
17.03.2019 09:00:00 7,0 5,6 0 0 5 3 N 1012,8 0,0
17.03.2019 08:00:00 2,1 1,7 4 2 5 3 SW 1012,9 0,0
17.03.2019 07:00:00 2,0 1,6 0 0 8 4 N 1012,9 -
17.03.2019 06:00:00 2,6 2,0 0 0 4 2 N 1013,5 0,0
17.03.2019 05:00:00 2,9 2,3 0 0 8 4 N 1014,1 0,0
17.03.2019 04:00:00 3,8 3,4 4 2 9 5 ESE 1014,5 0,0
17.03.2019 03:00:00 3,9 3,3 5 3 8 4 NE 1014,9 0,0
17.03.2019 02:00:00 4,9 4,3 4 2 5 3 NE 1015,5 0,0
17.03.2019 01:00:00 5,4 4,4 0 0 5 3 N 1015,4 -
17.03.2019 00:00:00 5,7 4,5 0 0 5 3 N 1015,8 0,0
16.03.2019 23:00:00 6,6 5,1 0 0 4 2 N 1015,5 0,0
16.03.2019 22:00:00 7,9 6,0 0 0 4 2 N 1015,7 0,0
16.03.2019 21:00:00 9,4 7,0 0 0 4 2 N 1015,6 0,0
16.03.2019 20:00:00 10,9 7,9 4 2 8 4 N 1015,7 0,0
16.03.2019 19:00:00 14,2 8,4 4 2 5 3 ENE 1015,5 -
16.03.2019 18:00:00 19,6 8,0 0 0 5 3 N 1015,0 0,0
16.03.2019 17:00:00 20,7 7,0 0 0 5 3 N 1015,5 0,0
16.03.2019 16:00:00 19,2 7,0 0 0 8 4 N 1016,1 0,0
16.03.2019 15:00:00 18,6 6,7 0 0 13 7 N 1017,1 0,0
16.03.2019 14:00:00 16,8 6,6 4 2 9 5 N 1018,2 0,0
16.03.2019 13:00:00 15,1 6,9 4 2 9 5 NE 1019,7 -
16.03.2019 12:00:00 12,4 6,9 4 2 11 6 NNW 1020,9 0,0
16.03.2019 11:00:00 10,7 7,2 4 2 11 6 ENE 1022,1 0,0
16.03.2019 10:00:00 8,6 6,2 0 0 8 4 N 1023,2 0,0
16.03.2019 09:00:00 7,6 6,5 2 1 5 3 N 1023,8 0,0
16.03.2019 08:00:00 7,0 6,6 4 2 5 3 NE 1023,7 0,0
16.03.2019 07:00:00 6,6 6,0 0 0 5 3 N 1023,7 -
16.03.2019 06:00:00 6,9 6,5 4 2 8 4 ESE 1023,6 0,0
16.03.2019 05:00:00 5,9 5,5 2 1 8 4 NE 1023,3 0,0
16.03.2019 04:00:00 7,2 6,6 2 1 5 3 E 1023,6 0,0
16.03.2019 03:00:00 8,0 7,4 0 0 5 3 N 1023,9 0,0
16.03.2019 02:00:00 8,5 7,9 4 2 5 3 SSE 1024,6 0,0
16.03.2019 01:00:00 8,7 8,1 2 1 8 4 S 1025,0 -
16.03.2019 00:00:00 8,7 7,9 2 1 9 5 SSE 1025,1 0,0
15.03.2019 23:00:00 9,2 8,3 2 1 9 5 E 1025,1 0,0
15.03.2019 22:00:00 9,8 9,0 0 0 13 7 N 1024,8 0,0
15.03.2019 21:00:00 9,9 9,1 4 2 11 6 E 1024,6 0,0
15.03.2019 20:00:00 10,0 9,1 2 1 5 3 SSE 1024,2 0,2
15.03.2019 19:00:00 10,3 9,4 4 2 11 6 N 1023,7 -
15.03.2019 18:00:00 10,9 9,2 4 2 8 4 ESE 1023,0 0,0
15.03.2019 17:00:00 10,8 9,1 5 3 18 10 ESE 1022,6 0,2
15.03.2019 16:00:00 10,7 9,1 11 6 15 8 ENE 1022,4 0,2
15.03.2019 15:00:00 10,7 8,6 9 5 18 10 NNE 1022,6 0,0
15.03.2019 14:00:00 10,0 8,3 9 5 15 8 NNE 1022,9 0,2
15.03.2019 13:00:00 8,8 7,4 11 6 18 10 N 1024,0 -
15.03.2019 12:00:00 7,7 6,3 11 6 16 9 NE 1024,2 0,6
15.03.2019 11:00:00 6,7 5,5 11 6 18 10 NNE 1024,4 0,6
15.03.2019 10:00:00 6,0 4,8 9 5 22 12 NE 1024,4 0,4
15.03.2019 09:00:00 5,7 5,0 13 7 21 11 NNE 1024,4 0,5
15.03.2019 08:00:00 5,0 4,3 9 5 15 8 NE 1023,9 0,4
15.03.2019 07:00:00 5,4 4,8 4 2 8 4 ENE 1023,5 -
15.03.2019 06:00:00 5,3 4,6 2 1 8 4 N 1022,9 0,4
15.03.2019 05:00:00 5,2 4,5 5 3 13 7 S 1022,5 2,0
15.03.2019 04:00:00 5,1 4,4 8 4 13 7 S 1022,4 3,0
15.03.2019 03:00:00 4,8 4,1 5 3 11 6 S 1022,3 2,0
15.03.2019 02:00:00 4,5 3,8 5 3 11 6 S 1022,7 2,0
15.03.2019 01:00:00 4,4 3,7 4 2 9 5 SSW 1022,6 -
15.03.2019 00:00:00 4,3 3,4 5 3 13 7 SW 1022,4 2,0
14.03.2019 23:00:00 4,5 3,5 5 3 11 6 SSW 1021,9 2,0
14.03.2019 22:00:00 4,8 3,8 8 4 15 8 SW 1021,6 2,0
14.03.2019 21:00:00 5,2 4,2 9 5 13 7 SW 1021,2 3,0
14.03.2019 20:00:00 5,5 4,3 0 0 5 3 N 1020,9 3,0
14.03.2019 19:00:00 5,7 4,5 2 1 5 3 S 1020,4 -
14.03.2019 18:00:00 5,9 4,4 4 2 8 4 SW 1020,1 2,0
14.03.2019 17:00:00 6,5 4,0 2 1 5 3 SSE 1020,2 2,0
14.03.2019 16:00:00 7,0 4,1 5 3 16 9 N 1021,3 0,8
14.03.2019 15:00:00 8,7 2,9 4 2 11 6 W 1021,6 0,0
14.03.2019 14:00:00 9,7 1,8 4 2 9 5 W 1022,0 0,0
14.03.2019 13:00:00 9,4 2,5 4 2 15 8 NE 1022,8 -
14.03.2019 12:00:00 8,7 1,8 4 2 9 5 N 1023,8 0,0
14.03.2019 11:00:00 9,1 2,4 2 1 8 4 NNE 1023,7 0,0
14.03.2019 10:00:00 7,4 3,4 4 2 9 5 E 1024,3 0,0
14.03.2019 09:00:00 5,4 4,0 5 3 9 5 E 1024,7 0,0
14.03.2019 08:00:00 4,4 3,4 4 2 11 6 SSE 1024,3 0,0
14.03.2019 07:00:00 4,4 3,5 15 8 18 10 NNW 1024,5 -
14.03.2019 06:00:00 4,2 3,3 4 2 5 3 WSW 1024,5 0,0
14.03.2019 05:00:00 4,3 3,0 0 0 9 5 N 1024,4 0,0
14.03.2019 04:00:00 4,6 3,6 9 5 15 8 NNE 1024,2 0,4
14.03.2019 03:00:00 4,8 3,6 5 3 11 6 SSE 1025,0 0,4
14.03.2019 02:00:00 4,7 3,5 9 5 16 9 NNE 1024,5 0,4
14.03.2019 01:00:00 4,8 3,5 11 6 15 8 SW 1023,8 -
14.03.2019 00:00:00 4,5 3,0 0 0 8 4 N 1023,5 0,0
13.03.2019 23:00:00 5,3 3,8 2 1 15 8 NE 1023,9 1,0
13.03.2019 22:00:00 5,2 3,5 8 4 11 6 SSE 1023,1 0,2
13.03.2019 21:00:00 5,0 2,9 2 1 9 5 SSW 1022,4 0,0
13.03.2019 20:00:00 4,9 2,8 9 5 13 7 WSW 1022,0 0,0
13.03.2019 19:00:00 5,8 2,6 4 2 22 12 SSW 1021,6 -
13.03.2019 18:00:00 7,9 1,7 15 8 28 15 NE 1020,7 0,0
13.03.2019 17:00:00 8,5 1,6 8 4 28 15 WNW 1020,1 0,0
13.03.2019 16:00:00 7,7 2,2 13 7 41 22 S 1020,5 0,0
13.03.2019 15:00:00 10,6 -2,1 8 4 26 14 WNW 1018,7 0,0

tt = Température de l'air
td = dewpoint
ff = Vitesse du vent
fx = gusts
dd = Direction du vent
ppp = reduced air pressure
rr = Quantités de précipitations

stations d'obs. à proximité